Flight Track Log - Related Links

Times and Time Zones

All times are in EDT time to prevent confusion due to time zone crossing. See the RPA3457 flight status page for this flight to view local times or setup timezone preferences in your user account.

Time Position Orientation Groundspeed Altitude Reporting Facility
EDT Latitude Longitude Course Direction KTS MPH feet Rate Location/Type
Sat 08:02:12 AM 44.4233 -73.2250 195° South 216 249 4,100  Level Boston Center
Sat 08:03:12 AM 44.3689 -73.2417 192° South 266 306 7,200 2,900 Climbing Boston Center
Sat 08:04:00 AM 43.9620 -73.3349 194° South  Level FlightAware Approximate
Sat 08:04:12 AM 44.3042 -73.2611 192° South 256 295 9,900  Level Boston Center
Sat 08:05:00 AM 43.8606 -73.3711 195° South  Level FlightAware Approximate
Sat 08:05:24 AM 44.2333 -73.2689 184° South 256 295 12,400  Level Boston Center
Sat 08:06:00 AM 43.7595 -73.4090 195° South  Level FlightAware Approximate
Sat 08:06:24 AM 44.1458 -73.2792 185° South 256 295 16,000  Level Boston Center
Sat 08:07:00 AM 43.6584 -73.4469 195° South  Level FlightAware Approximate
Sat 08:07:24 AM 44.0747 -73.2867 184° South 256 295 18,700  Level Boston Center
Sat 08:08:24 AM 44.0019 -73.2972 186° South 265 305 21,400 2,650 Climbing Boston Center
Sat 08:09:24 AM 43.9289 -73.3050 184° South 265 305 24,000 2,300 Climbing Boston Center
Sat 08:10:24 AM 43.8581 -73.3125 184° South 270 311 26,000 1,750 Climbing Boston Center
Sat 08:11:24 AM 43.7869 -73.3200 184° South 270 311 27,500 1,000 Climbing Boston Center
Sat 08:12:24 AM 43.7119 -73.3306 186° South 270 311 28,000 250 Climbing Boston Center
Sat 08:13:24 AM 43.6431 -73.3353 183° South 275 316 28,000  Level Boston Center
Sat 08:14:24 AM 43.5661 -73.3428 184° South 275 316 28,000  Level Boston Center
Sat 08:15:24 AM 43.4908 -73.3531 186° South 275 316 28,000  Level Boston Center
Sat 08:16:24 AM 43.4178 -73.3661 187° South 275 316 28,000  Level Boston Center
Sat 08:17:24 AM 43.3594 -73.3739 186° South 275 316 28,000  Level Boston Center
Sat 08:18:24 AM 43.2675 -73.3953 190° South 275 316 28,000  Level Boston Center
Sat 08:19:24 AM 43.1944 -73.4111 189° South 275 316 28,000  Level Boston Center
Sat 08:20:24 AM 43.1111 -73.4269 188° South 275 316 28,000  Level Boston Center
Sat 08:21:24 AM 43.0336 -73.4400 187° South 275 316 28,000  Level Boston Center
Sat 08:22:24 AM 42.9586 -73.4558 189° South 275 316 28,000  Level Boston Center
Sat 08:23:24 AM 42.8814 -73.4714 188° South 280 322 28,000  Level Boston Center
Sat 08:24:24 AM 42.8125 -73.4844 188° South 280 322 28,000  Level Boston Center
Sat 08:25:24 AM 42.7289 -73.5028 189° South 291 335 28,000  Level Boston Center
Sat 08:26:24 AM 42.6433 -73.5211 189° South 303 349 28,000  Level Boston Center
Sat 08:27:24 AM 42.5597 -73.5339 186° South 308 354 28,000  Level Boston Center
Sat 08:28:24 AM 42.4742 -73.5519 189° South 314 361 28,000  Level Boston Center
Sat 08:29:24 AM 42.3886 -73.5700 189° South 314 361 28,000  Level Boston Center
Sat 08:30:36 AM 42.2967 -73.5797 184° South 307 353 28,000  Level Boston Center
Sat 08:31:36 AM 42.1944 -73.6031 190° South 307 353 28,000  Level Boston Center
Sat 08:32:36 AM 42.1086 -73.6183 188° South 312 359 28,000  Level Boston Center
Sat 08:33:36 AM 42.0294 -73.6392 191° South 318 366 28,000  Level Boston Center
Sat 08:34:36 AM 41.9439 -73.6514 186° South 318 366 28,000 -450 Level Boston Center
Sat 08:35:36 AM 41.8583 -73.6581 183° South 318 366 27,100 -500 Descending Boston Center
Sat 08:36:36 AM 41.7689 -73.6203 163° South 314 361 27,000 -50 Descending Boston Center
Sat 08:37:36 AM 41.6819 -73.5825 162° South 320 368 27,000  Level Boston Center
Sat 08:38:36 AM 41.5925 -73.5447 162° South 334 384 27,000 -100 Level Boston Center
Sat 08:39:36 AM 41.4950 -73.5014 162° South 340 391 26,800 -299 Descending Boston Center
Sat 08:41:57 AM 41.3033 -73.4861 177° South 305 351 26,000 -238 Descending New York Center
Sat 08:42:58 AM 41.2858 -73.6094 259° West 259 298 26,000  Level New York Center
Sat 08:43:58 AM 41.2867 -73.7394 271° West 294 338 26,000  Level New York Center
Sat 08:45:00 AM 41.2406 -73.8339 237° Southwest 307 353 26,000  Level New York Center
Sat 08:46:00 AM 41.1761 -73.9136 223° Southwest 310 357 26,000  Level New York Center
Sat 08:46:59 AM 41.1156 -73.9906 224° Southwest 310 357 26,000  Level New York Center
Sat 08:47:59 AM 41.0553 -74.0675 224° Southwest 310 357 26,000  Level New York Center
Sat 08:48:58 AM 40.9861 -74.1547 224° Southwest 310 357 26,000  Level New York Center
Sat 08:49:58 AM 40.9319 -74.2208 223° Southwest 304 350 26,000  Level New York Center
Sat 08:50:59 AM 40.8714 -74.2972 224° Southwest 304 350 26,000  Level New York Center
Sat 08:51:57 AM 40.8108 -74.3736 224° Southwest 304 350 26,000  Level New York Center
Sat 08:52:59 AM 40.7561 -74.4556 229° Southwest 304 350 26,000  Level New York Center
Sat 08:53:58 AM 40.7036 -74.5406 231° Southwest 304 350 26,000  Level New York Center
Sat 08:54:58 AM 40.6528 -74.6278 232° Southwest 304 350 26,000 -1,100 Level New York Center
Sat 08:55:58 AM 40.6022 -74.7097 231° Southwest 304 350 23,800 -1,983 Descending New York Center
Sat 08:56:59 AM 40.5494 -74.7914 230° Southwest 299 344 22,000 -893 Descending New York Center
Sat 08:57:59 AM 40.4969 -74.8647 227° Southwest 294 338 22,000  Level New York Center
Sat 08:59:00 AM 40.4419 -74.9433 227° Southwest 294 338 22,000  Level New York Center
Sat 09:00:00 AM 40.3872 -75.0164 225° Southwest 289 333 22,000  Level New York Center
Sat 09:01:00 AM 40.3344 -75.0975 230° Southwest 289 333 22,000  Level New York Center
Sat 09:01:58 AM 40.2794 -75.1731 226° Southwest 289 333 22,000  Level New York Center
Sat 09:02:59 AM 40.2244 -75.2483 226° Southwest 289 333 22,000  Level New York Center
Sat 09:03:59 AM 40.1717 -75.3236 227° Southwest 289 333 22,000  Level New York Center
Sat 09:05:00 AM 40.1164 -75.4014 227° Southwest 284 327 22,000  Level New York Center
Sat 09:06:00 AM 40.0547 -75.4842 226° Southwest 284 327 22,000  Level New York Center
Sat 09:06:58 AM 40.0017 -75.5592 227° Southwest 289 333 22,000  Level New York Center
Sat 09:07:58 AM 39.9467 -75.6339 226° Southwest 289 333 22,000  Level New York Center
Sat 09:09:00 AM 39.8972 -75.7169 232° Southwest 289 333 22,000  Level New York Center
Sat 09:09:57 AM 39.8503 -75.7950 232° Southwest 289 333 22,000  Level New York Center
Sat 09:10:59 AM 39.7989 -75.8750 230° Southwest 294 338 22,000 -590 Level New York Center
Sat 09:11:59 AM 39.7472 -75.9550 230° Southwest 294 338 20,800 -1,442 Descending New York Center
Sat 09:13:33 AM 39.6667 -76.0833 231° Southwest 301 346 18,300 -1,597 Descending Potomac TRACON
Sat 09:14:33 AM 39.6167 -76.1667 232° Southwest 293 337 16,700 -1,550 Descending Potomac TRACON
Sat 09:15:33 AM 39.5667 -76.2500 232° Southwest 283 326 15,200 -1,526 Descending Potomac TRACON
Sat 09:16:27 AM 39.5167 -76.3167 226° Southwest 279 321 13,800 -1,474 Descending Potomac TRACON
Sat 09:17:27 AM 39.4667 -76.4000 232° Southwest 276 318 12,400 -900 Descending Potomac TRACON
Sat 09:18:27 AM 39.4000 -76.4500 210° Southwest 275 316 12,000 -200 Descending Potomac TRACON
Sat 09:19:27 AM 39.3500 -76.5167 226° Southwest 275 316 12,000  Level Potomac TRACON
Sat 09:20:21 AM 39.3000 -76.5500 207° Southwest 251 289 12,000 -368 Level Potomac TRACON
Sat 09:21:21 AM 39.2333 -76.6000 210° Southwest 254 292 11,300 -950 Descending Potomac TRACON
Sat 09:22:21 AM 39.1833 -76.6500 218° Southwest 226 260 10,100 -650 Descending Potomac TRACON
Sat 09:23:21 AM 39.1333 -76.7000 218° Southwest 225 259 10,000 -50 Descending Potomac TRACON
Sat 09:24:21 AM 39.0833 -76.7667 226° Southwest 221 254 10,000 -1,050 Level Potomac TRACON
Sat 09:25:21 AM 39.0500 -76.8167 229° Southwest 227 261 7,900 -2,000 Descending Potomac TRACON
Sat 09:26:21 AM 38.9833 -76.8667 210° Southwest 253 291 6,000 -950 Descending Potomac TRACON
Sat 09:27:21 AM 38.9333 -76.9333 226° Southwest 254 292 6,000 -400 Level Potomac TRACON
Sat 09:28:21 AM 38.8667 -76.9500 191° South 281 323 5,200 -1,043 Descending Potomac TRACON
Sat 09:29:16 AM 38.8000 -76.9500 180° South 266 306 4,000 -1,409 Descending Potomac TRACON
Sat 09:30:16 AM 38.7500 -76.9833 207° Southwest 246 283 2,500 -950 Descending Potomac TRACON
Sat 09:31:16 AM 38.7667 -77.0333 293° West 185 213 2,100 -400 Descending Potomac TRACON

Login

Don't have an account? Register now (free) for customized features, flight alerts, and more!